Time;durP1;ratioP1;P1;durP2;ratioP2;P2;SDS_P1;SDS_P2;PMS_P1;PMS_P2;Temp;Humidity;BMP_temperature;BMP_pressure;BME280_temperature;BME280_humidity;BME280_pressure;Samples;Min_cycle;Max_cycle;Signal;HPM_P1;HPM_P2
2021/12/01 00:00:27;;;;;;;25.70;3.67;;;5.90;99.90;;;;;;5064495;28;20525;-76
2021/12/01 00:02:54;;;;;;;7.03;2.55;;;6.00;99.90;;;;;;5064494;28;20120;-76
2021/12/01 00:05:24;;;;;;;24.27;2.80;;;6.00;99.90;;;;;;5062846;28;20447;-75
2021/12/01 00:07:50;;;;;;;9.27;2.53;;;6.00;99.90;;;;;;5064612;28;20036;-74
2021/12/01 00:10:17;;;;;;;9.30;3.28;;;6.00;99.90;;;;;;5063906;28;20022;-74
2021/12/01 00:12:44;;;;;;;8.85;3.05;;;6.00;99.90;;;;;;5063479;28;20070;-74
2021/12/01 00:15:09;;;;;;;19.60;4.80;;;6.00;99.90;;;;;;5064292;28;20101;-75
2021/12/01 00:17:35;;;;;;;13.38;3.75;;;6.10;99.90;;;;;;5062774;28;20033;-74
2021/12/01 00:20:04;;;;;;;7.78;2.88;;;6.00;99.90;;;;;;5064142;28;20029;-74
2021/12/01 00:22:29;;;;;;;8.60;3.17;;;6.00;99.90;;;;;;5066902;28;20052;-74
2021/12/01 00:24:56;;;;;;;11.60;3.53;;;6.20;99.90;;;;;;5068244;28;20021;-74
2021/12/01 00:27:25;;;;;;;6.65;3.45;;;6.10;99.90;;;;;;5068454;28;20043;-74
2021/12/01 00:29:51;;;;;;;18.65;4.60;;;6.10;99.90;;;;;;5066723;28;20404;-74
2021/12/01 00:32:18;;;;;;;7.68;3.42;;;6.10;99.90;;;;;;5096525;28;20056;-74
2021/12/01 00:34:44;;;;;;;12.52;2.80;;;6.10;99.90;;;;;;5108179;28;20097;-72
2021/12/01 00:37:10;;;;;;;6.00;2.95;;;6.20;99.90;;;;;;5089531;28;20123;-73
2021/12/01 00:39:35;;;;;;;8.52;2.35;;;6.10;99.90;;;;;;5089967;28;20110;-72
2021/12/01 00:42:01;;;;;;;14.02;3.85;;;6.20;99.90;;;;;;5108384;28;20089;-74
2021/12/01 00:44:33;;;;;;;10.63;3.88;;;6.10;99.90;;;;;;5089683;28;20239;-75
2021/12/01 00:49:30;;;;;;;7.53;2.85;;;6.10;99.90;;;;;;5108173;28;20035;-77
2021/12/01 00:51:57;;;;;;;6.22;2.88;;;6.20;99.90;;;;;;5089814;28;20078;-76
2021/12/01 00:54:23;;;;;;;9.75;3.92;;;6.10;99.90;;;;;;5090108;28;20399;-75
2021/12/01 00:56:49;;;;;;;7.15;2.63;;;6.10;99.90;;;;;;5107796;28;20437;-75
2021/12/01 00:59:16;;;;;;;10.52;3.95;;;6.20;99.90;;;;;;5089512;28;20030;-76
2021/12/01 01:01:43;;;;;;;8.43;3.00;;;6.10;99.90;;;;;;5107494;28;20032;-76
2021/12/01 01:04:09;;;;;;;7.85;2.58;;;6.20;99.90;;;;;;5107536;28;20124;-76
2021/12/01 01:06:35;;;;;;;12.95;3.72;;;6.20;99.90;;;;;;5088365;28;20476;-79
2021/12/01 01:09:05;;;;;;;7.10;3.40;;;6.30;99.90;;;;;;5088883;28;20074;-81
2021/12/01 01:17:00;;;;;;;13.35;3.67;;;6.30;99.90;;;;;;5107546;28;20042;-77
2021/12/01 01:19:26;;;;;;;9.70;3.47;;;6.20;99.90;;;;;;5088980;28;20032;-81
2021/12/01 01:21:52;;;;;;;11.50;3.20;;;6.20;99.90;;;;;;5089266;28;20036;-80
2021/12/01 01:24:19;;;;;;;6.97;2.85;;;6.20;99.90;;;;;;5107488;28;20646;-77
2021/12/01 01:26:45;;;;;;;5.43;2.55;;;6.20;99.90;;;;;;5089271;28;20027;-78
2021/12/01 01:29:11;;;;;;;14.07;3.00;;;6.30;99.90;;;;;;5088864;28;20088;-74
2021/12/01 01:31:37;;;;;;;7.18;2.30;;;6.30;99.90;;;;;;5106666;28;20064;-79
2021/12/01 01:34:04;;;;;;;9.07;3.75;;;6.30;99.90;;;;;;5106653;28;20031;-78
2021/12/01 01:36:30;;;;;;;8.88;3.30;;;6.20;99.90;;;;;;5089363;28;20103;-79
2021/12/01 01:38:59;;;;;;;8.75;2.92;;;6.30;99.90;;;;;;5107185;28;20767;-80
2021/12/01 01:41:27;;;;;;;6.97;2.53;;;6.20;99.90;;;;;;5088730;28;20494;-79
2021/12/01 01:43:54;;;;;;;8.48;3.15;;;6.30;99.90;;;;;;5089258;28;20035;-80
2021/12/01 01:46:20;;;;;;;5.38;2.58;;;6.30;99.90;;;;;;5088590;28;20126;-79
2021/12/01 01:48:55;;;;;;;6.25;2.90;;;6.20;99.90;;;;;;5089050;28;20856;-78
2021/12/01 01:51:26;;;;;;;3.03;1.70;;;6.20;99.90;;;;;;5088856;28;20032;-78
2021/12/01 01:53:59;;;;;;;7.68;4.22;;;6.30;99.90;;;;;;5089464;28;20036;-78
2021/12/01 01:56:26;;;;;;;6.95;2.33;;;6.30;99.90;;;;;;5089348;28;20111;-78
2021/12/01 01:58:54;;;;;;;4.80;2.20;;;6.30;99.90;;;;;;5106965;28;20032;-80
2021/12/01 02:01:43;;;;;;;6.25;2.60;;;6.30;99.90;;;;;;5108889;28;20095;-81
2021/12/01 02:04:10;;;;;;;8.45;2.78;;;6.30;99.90;;;;;;5108762;28;20028;-84
2021/12/01 02:06:36;;;;;;;5.95;2.60;;;6.40;99.90;;;;;;5089231;28;20024;-84
2021/12/01 02:09:04;;;;;;;5.15;2.78;;;6.30;99.90;;;;;;5090234;28;20035;-81
2021/12/01 02:11:34;;;;;;;7.70;3.35;;;6.30;99.90;;;;;;5107170;28;20028;-80
2021/12/01 02:14:00;;;;;;;7.65;2.38;;;6.40;99.90;;;;;;5088269;28;20032;-81
2021/12/01 02:16:26;;;;;;;6.22;3.15;;;6.30;99.90;;;;;;5088323;28;20039;-82
2021/12/01 02:18:54;;;;;;;14.48;3.03;;;6.40;99.90;;;;;;5088822;28;20040;-80
2021/12/01 02:21:29;;;;;;;10.52;2.42;;;6.40;99.90;;;;;;5106614;28;20081;-83
2021/12/01 02:24:14;;;;;;;6.82;2.70;;;6.40;99.90;;;;;;5088908;28;20089;-79
2021/12/01 02:26:47;;;;;;;7.40;3.17;;;6.50;99.90;;;;;;5106786;28;20020;-82
2021/12/01 02:29:31;;;;;;;4.95;2.33;;;6.40;99.90;;;;;;5106384;28;20391;-82
2021/12/01 02:31:57;;;;;;;6.33;2.83;;;6.40;99.90;;;;;;5073392;28;20052;-83
2021/12/01 02:34:25;;;;;;;9.32;2.80;;;6.50;99.90;;;;;;5064859;28;20043;-79
2021/12/01 02:36:55;;;;;;;5.75;2.65;;;6.50;99.90;;;;;;5064824;28;20392;-80
2021/12/01 02:39:22;;;;;;;6.68;2.80;;;6.50;99.90;;;;;;5066208;28;20115;-80
2021/12/01 02:41:53;;;;;;;5.32;2.15;;;6.60;99.90;;;;;;5064003;28;20054;-79
2021/12/01 02:44:20;;;;;;;5.97;2.20;;;6.60;99.90;;;;;;5065448;28;20440;-79
2021/12/01 02:46:46;;;;;;;6.55;2.38;;;6.60;99.90;;;;;;5065355;28;20032;-80
2021/12/01 02:49:23;;;;;;;7.60;2.95;;;6.70;99.90;;;;;;5064272;28;20029;-80
2021/12/01 02:51:49;;;;;;;8.50;3.35;;;6.70;99.90;;;;;;5063782;28;20044;-81
2021/12/01 02:54:15;;;;;;;12.50;2.72;;;6.70;99.90;;;;;;5063801;28;20025;-84
2021/12/01 02:56:46;;;;;;;7.00;2.78;;;6.70;99.90;;;;;;5063937;28;20138;-82
2021/12/01 02:59:12;;;;;;;6.97;3.15;;;6.80;99.90;;;;;;5063719;28;20028;-82
2021/12/01 03:01:38;;;;;;;6.18;2.92;;;6.80;99.90;;;;;;5064199;28;20035;-80
2021/12/01 03:04:04;;;;;;;3.83;2.40;;;6.90;99.90;;;;;;5065444;28;20040;-76
2021/12/01 03:06:33;;;;;;;7.03;3.42;;;6.90;99.90;;;;;;5065171;28;20025;-80
2021/12/01 03:09:00;;;;;;;11.90;3.03;;;6.90;99.90;;;;;;5065177;28;20017;-80
2021/12/01 03:11:26;;;;;;;4.90;2.45;;;7.00;99.90;;;;;;5073347;28;20047;-81
2021/12/01 03:13:56;;;;;;;5.78;2.47;;;7.00;99.90;;;;;;5083965;28;20078;-80
2021/12/01 03:16:23;;;;;;;9.27;3.80;;;7.00;99.90;;;;;;5084082;28;20033;-80
2021/12/01 03:18:58;;;;;;;6.95;3.15;;;7.00;99.90;;;;;;5084641;28;20036;-81
2021/12/01 03:21:25;;;;;;;7.32;2.78;;;7.10;99.90;;;;;;5084299;28;20495;-79
2021/12/01 03:23:50;;;;;;;10.80;3.00;;;7.10;99.90;;;;;;5084963;28;20021;-78
2021/12/01 03:26:16;;;;;;;11.80;3.45;;;7.10;99.90;;;;;;5083581;28;20056;-80
2021/12/01 03:28:41;;;;;;;12.20;4.00;;;7.10;99.90;;;;;;5084909;28;20025;-80
2021/12/01 03:31:07;;;;;;;11.73;3.80;;;7.20;99.90;;;;;;5093888;28;20043;-80
2021/12/01 03:33:33;;;;;;;10.95;3.13;;;7.20;99.90;;;;;;5106973;28;20050;-80
2021/12/01 03:35:59;;;;;;;10.82;3.45;;;7.20;99.90;;;;;;5107137;28;20027;-81
2021/12/01 03:38:27;;;;;;;9.82;5.05;;;7.30;99.90;;;;;;5107642;28;20027;-78
2021/12/01 03:40:55;;;;;;;14.65;5.18;;;7.30;99.90;;;;;;5107396;28;20360;-80
2021/12/01 03:43:21;;;;;;;17.05;5.13;;;7.30;99.90;;;;;;5125573;28;20034;-79
2021/12/01 03:45:47;;;;;;;9.82;4.63;;;7.40;99.90;;;;;;5107073;28;20031;-80
2021/12/01 03:48:13;;;;;;;11.82;4.15;;;7.50;99.90;;;;;;5125234;28;20027;-81
2021/12/01 03:50:40;;;;;;;11.32;4.93;;;7.50;99.90;;;;;;5125521;28;20087;-81
2021/12/01 03:53:06;;;;;;;10.75;4.75;;;7.50;99.90;;;;;;5107253;28;20046;-79
2021/12/01 03:55:31;;;;;;;14.35;4.93;;;7.60;99.90;;;;;;5106728;28;20024;-82
2021/12/01 03:57:57;;;;;;;15.48;5.03;;;7.60;99.90;;;;;;5089960;28;20027;-82
2021/12/01 04:00:23;;;;;;;13.07;6.30;;;7.70;99.90;;;;;;5106835;28;20513;-82
2021/12/01 04:02:49;;;;;;;16.77;6.45;;;7.70;99.90;;;;;;5107221;28;20037;-83
2021/12/01 04:05:15;;;;;;;9.30;3.92;;;7.70;99.90;;;;;;5125979;28;20028;-79
2021/12/01 04:07:42;;;;;;;17.33;6.32;;;7.80;99.90;;;;;;5107217;28;20038;-82
2021/12/01 04:10:13;;;;;;;17.55;5.65;;;7.80;99.90;;;;;;5107086;28;20020;-82
2021/12/01 04:12:41;;;;;;;20.85;6.47;;;7.90;99.90;;;;;;5125065;28;20169;-80
2021/12/01 04:15:07;;;;;;;16.85;6.72;;;7.90;99.90;;;;;;5106860;28;20043;-81
2021/12/01 04:17:37;;;;;;;16.75;6.10;;;7.90;99.90;;;;;;5125217;28;20024;-83
2021/12/01 04:20:03;;;;;;;16.38;4.63;;;8.00;99.90;;;;;;5106878;28;20023;-83
2021/12/01 04:22:29;;;;;;;12.43;4.75;;;8.10;99.90;;;;;;5125254;28;20035;-81
2021/12/01 04:25:36;;;;;;;11.20;4.35;;;8.20;99.90;;;;;;5125696;28;20031;-86
2021/12/01 04:28:02;;;;;;;17.48;6.20;;;8.30;99.90;;;;;;5005941;28;20065;-83
2021/12/01 04:30:28;;;;;;;21.48;6.82;;;8.30;99.90;;;;;;5091253;28;20031;-78
2021/12/01 04:32:56;;;;;;;17.77;6.20;;;8.40;99.90;;;;;;5124952;28;20078;-81
2021/12/01 04:35:24;;;;;;;10.18;4.78;;;8.40;99.90;;;;;;5106800;28;20031;-79
2021/12/01 04:37:51;;;;;;;12.60;4.20;;;8.50;99.90;;;;;;5125081;28;20023;-78
2021/12/01 04:40:17;;;;;;;9.20;3.67;;;8.50;99.90;;;;;;5106465;28;20024;-81
2021/12/01 04:42:43;;;;;;;8.80;3.03;;;8.60;99.90;;;;;;5106236;28;20019;-78
2021/12/01 04:45:14;;;;;;;8.57;3.03;;;8.60;99.90;;;;;;5124861;28;20046;-83
2021/12/01 04:47:49;;;;;;;14.35;4.82;;;8.70;99.90;;;;;;5124760;28;20057;-78
2021/12/01 04:50:17;;;;;;;11.10;4.15;;;8.70;99.90;;;;;;5124732;28;20442;-80
2021/12/01 04:52:44;;;;;;;8.77;2.85;;;8.70;99.90;;;;;;5106777;28;20035;-78
2021/12/01 04:55:10;;;;;;;9.27;3.10;;;8.70;99.90;;;;;;5106525;28;20028;-78
2021/12/01 04:57:47;;;;;;;13.65;2.42;;;8.70;99.90;;;;;;5106293;28;20480;-82
2021/12/01 05:00:35;;;;;;;7.15;2.33;;;8.80;99.90;;;;;;5124600;28;20039;-79
2021/12/01 05:03:01;;;;;;;8.73;2.78;;;8.70;99.90;;;;;;5107448;28;20036;-78
2021/12/01 05:05:27;;;;;;;11.55;2.88;;;8.80;99.90;;;;;;5124850;28;20028;-80
2021/12/01 05:07:53;;;;;;;11.90;3.15;;;8.80;99.90;;;;;;5126029;28;20027;-78
2021/12/01 05:10:19;;;;;;;9.65;3.47;;;8.80;99.90;;;;;;5109763;28;20114;-79
2021/12/01 05:12:45;;;;;;;13.30;3.60;;;8.80;99.90;;;;;;5127930;28;20524;-75
2021/12/01 05:15:11;;;;;;;6.13;1.70;;;8.80;99.90;;;;;;5128176;28;20024;-77
2021/12/01 05:17:37;;;;;;;9.68;3.53;;;8.80;99.90;;;;;;5109599;28;20038;-77
2021/12/01 05:20:04;;;;;;;7.78;1.67;;;8.80;99.90;;;;;;5127692;28;20114;-77
2021/12/01 05:22:32;;;;;;;5.72;2.28;;;8.80;99.90;;;;;;5127422;28;20044;-76
2021/12/01 05:24:58;;;;;;;2.95;1.23;;;8.80;99.90;;;;;;5109748;28;20027;-79
2021/12/01 05:27:24;;;;;;;2.33;1.10;;;8.70;99.90;;;;;;5109570;28;20031;-81
2021/12/01 05:29:49;;;;;;;2.92;1.38;;;8.80;99.90;;;;;;5109599;28;20035;-77
2021/12/01 05:32:16;;;;;;;1.45;0.90;;;8.80;99.90;;;;;;5109139;28;20047;-78
2021/12/01 05:34:42;;;;;;;3.92;1.83;;;8.80;99.90;;;;;;5127463;28;20024;-83
2021/12/01 05:37:08;;;;;;;5.78;1.13;;;8.80;99.90;;;;;;5109000;28;20024;-77
2021/12/01 05:39:34;;;;;;;3.63;1.70;;;8.80;99.90;;;;;;5109269;28;20047;-77
2021/12/01 05:42:00;;;;;;;2.63;0.93;;;8.80;99.90;;;;;;5127528;28;20076;-79
2021/12/01 05:44:29;;;;;;;2.83;1.35;;;8.80;99.90;;;;;;5127551;28;20024;-80
2021/12/01 05:46:59;;;;;;;1.73;1.33;;;8.80;99.90;;;;;;5109089;28;20437;-81
2021/12/01 05:49:25;;;;;;;5.55;1.40;;;8.80;99.90;;;;;;5109609;28;20023;-78
2021/12/01 05:51:51;;;;;;;2.92;1.20;;;8.80;99.90;;;;;;5109136;28;20039;-80
2021/12/01 05:54:17;;;;;;;6.88;1.52;;;8.80;99.90;;;;;;5109167;28;20039;-76
2021/12/01 05:56:43;;;;;;;2.15;1.20;;;8.80;99.90;;;;;;5127749;28;20032;-79
2021/12/01 05:59:09;;;;;;;5.57;1.73;;;8.80;99.90;;;;;;5127107;28;20069;-81
2021/12/01 06:01:35;;;;;;;9.85;2.40;;;8.80;99.90;;;;;;5127175;28;20026;-75
2021/12/01 06:04:02;;;;;;;4.60;2.40;;;8.80;99.90;;;;;;5108794;28;20051;-78
2021/12/01 06:06:28;;;;;;;12.80;3.67;;;8.80;99.90;;;;;;5108707;28;20027;-76
2021/12/01 06:08:55;;;;;;;5.35;2.20;;;8.80;99.90;;;;;;5127379;28;20028;-84
2021/12/01 06:11:23;;;;;;;8.27;1.92;;;8.80;99.90;;;;;;5108722;28;20442;-78
2021/12/01 06:13:53;;;;;;;5.38;2.00;;;8.70;99.90;;;;;;5108759;28;20051;-84
2021/12/01 06:16:21;;;;;;;8.32;2.72;;;8.70;99.90;;;;;;5115966;28;20474;-77
2021/12/01 06:18:47;;;;;;;9.27;3.53;;;8.70;99.90;;;;;;5088965;28;20040;-75
2021/12/01 06:21:12;;;;;;;5.38;2.25;;;8.70;99.90;;;;;;5106581;28;20080;-83
2021/12/01 06:23:38;;;;;;;8.85;2.40;;;8.70;99.90;;;;;;5087736;28;20028;-79
2021/12/01 06:26:03;;;;;;;8.45;2.33;;;8.70;99.90;;;;;;5087524;28;20032;-78
2021/12/01 06:28:29;;;;;;;4.38;1.75;;;8.70;99.90;;;;;;5106302;28;20482;-80
2021/12/01 06:30:58;;;;;;;6.32;2.33;;;8.70;99.90;;;;;;5106924;28;20044;-76
2021/12/01 06:33:24;;;;;;;4.53;1.58;;;8.70;99.90;;;;;;5107528;28;20164;-77
2021/12/01 06:35:51;;;;;;;6.93;2.72;;;8.70;99.90;;;;;;5088079;28;20043;-76
2021/12/01 06:38:18;;;;;;;4.72;1.75;;;8.70;99.90;;;;;;5106710;28;20031;-78
2021/12/01 06:40:48;;;;;;;12.90;2.78;;;8.70;99.90;;;;;;5087695;28;20028;-81
2021/12/01 06:43:15;;;;;;;4.28;1.85;;;8.70;99.90;;;;;;5087547;28;20020;-78
2021/12/01 06:45:40;;;;;;;2.78;1.73;;;8.70;99.90;;;;;;5105751;28;20053;-79
2021/12/01 06:48:06;;;;;;;6.85;2.72;;;8.80;99.90;;;;;;5090279;28;20119;-78
2021/12/01 06:50:33;;;;;;;4.32;1.92;;;8.60;99.90;;;;;;5113567;28;20490;-79
2021/12/01 06:53:04;;;;;;;5.38;2.05;;;8.60;99.90;;;;;;5109402;28;20078;-78
2021/12/01 06:55:30;;;;;;;6.20;2.67;;;8.60;99.90;;;;;;5106618;28;20073;-78
2021/12/01 06:57:58;;;;;;;5.30;2.08;;;8.60;99.90;;;;;;5117780;28;20024;-80
2021/12/01 07:00:25;;;;;;;5.28;1.80;;;8.60;99.90;;;;;;5111177;28;20599;-78
2021/12/01 07:02:52;;;;;;;5.63;1.98;;;8.60;99.90;;;;;;5088416;28;20036;-79
2021/12/01 07:05:18;;;;;;;8.10;2.42;;;8.50;99.90;;;;;;5105543;28;20024;-80
2021/12/01 07:07:43;;;;;;;4.10;2.20;;;8.50;99.90;;;;;;5105832;28;20494;-78
2021/12/01 07:10:19;;;;;;;11.70;2.75;;;8.50;99.90;;;;;;5089149;28;20463;-75
2021/12/01 07:12:46;;;;;;;4.05;2.15;;;8.50;99.90;;;;;;5117001;28;20048;-77
2021/12/01 07:15:13;;;;;;;5.43;2.13;;;8.50;99.90;;;;;;5124129;28;20046;-78
2021/12/01 07:17:40;;;;;;;7.53;1.88;;;8.50;99.90;;;;;;5112283;28;20031;-80
2021/12/01 07:20:07;;;;;;;8.40;2.50;;;8.50;99.90;;;;;;5092238;28;20039;-76
2021/12/01 07:22:33;;;;;;;6.88;2.17;;;8.50;99.90;;;;;;5107404;28;20040;-79
2021/12/01 07:24:59;;;;;;;5.15;2.25;;;8.40;99.90;;;;;;5087182;28;20035;-79
2021/12/01 07:27:27;;;;;;;7.13;3.30;;;8.40;99.90;;;;;;5093179;28;20031;-79
2021/12/01 07:29:52;;;;;;;7.55;2.83;;;8.40;99.90;;;;;;5111591;28;20040;-78
2021/12/01 07:32:18;;;;;;;10.18;2.70;;;8.30;99.90;;;;;;5082976;28;20143;-77
2021/12/01 07:34:44;;;;;;;10.27;3.80;;;8.40;99.90;;;;;;5084640;28;20024;-78
2021/12/01 07:37:11;;;;;;;5.75;2.00;;;8.40;99.90;;;;;;5086743;28;20384;-73
2021/12/01 07:39:36;;;;;;;18.65;1.55;;;8.30;99.90;;;;;;5083221;28;20449;-76
2021/12/01 07:42:03;;;;;;;15.13;2.53;;;8.30;99.90;;;;;;5083479;28;20028;-77
2021/12/01 07:44:29;;;;;;;5.30;2.28;;;8.30;99.90;;;;;;5083311;28;20096;-79
2021/12/01 07:46:57;;;;;;;9.38;3.05;;;8.30;99.90;;;;;;5083247;28;20044;-75
2021/12/01 07:49:26;;;;;;;5.38;1.85;;;8.30;99.90;;;;;;5083574;28;20039;-78
2021/12/01 07:51:52;;;;;;;12.23;2.47;;;8.30;99.90;;;;;;5089340;28;20059;-75
2021/12/01 07:54:19;;;;;;;5.63;2.40;;;8.30;99.90;;;;;;5105181;28;20055;-76
2021/12/01 07:56:45;;;;;;;4.13;2.08;;;8.30;99.90;;;;;;5105726;28;20085;-75
2021/12/01 07:59:14;;;;;;;8.70;2.55;;;8.30;99.90;;;;;;5098259;28;20032;-77
2021/12/01 08:01:41;;;;;;;6.78;3.05;;;8.30;99.90;;;;;;5092027;28;20033;-75
2021/12/01 08:04:06;;;;;;;10.38;3.53;;;8.30;99.90;;;;;;5084753;28;20457;-75
2021/12/01 08:06:40;;;;;;;8.07;3.30;;;8.30;99.90;;;;;;5090470;28;20047;-73
2021/12/01 08:09:06;;;;;;;5.22;2.50;;;8.30;99.90;;;;;;5094164;28;20032;-75
2021/12/01 08:11:33;;;;;;;8.43;3.35;;;8.30;99.90;;;;;;5087164;28;20067;-83
2021/12/01 08:13:59;;;;;;;9.23;3.90;;;8.20;99.90;;;;;;5094132;28;20036;-74
2021/12/01 08:16:25;;;;;;;8.48;3.78;;;8.20;99.90;;;;;;5101364;28;20059;-77
2021/12/01 08:18:56;;;;;;;9.73;3.80;;;8.20;99.90;;;;;;5085877;28;20373;-75
2021/12/01 08:21:24;;;;;;;11.25;3.75;;;8.20;99.90;;;;;;5096603;28;20034;-74
2021/12/01 08:23:51;;;;;;;8.15;3.35;;;8.20;99.90;;;;;;5086915;28;20086;-75
2021/12/01 08:26:26;;;;;;;7.72;3.42;;;8.20;99.90;;;;;;5084059;28;20086;-79
2021/12/01 08:28:52;;;;;;;10.02;3.67;;;8.20;99.90;;;;;;5092899;28;20024;-74
2021/12/01 08:31:19;;;;;;;6.75;3.22;;;8.20;99.90;;;;;;5103577;28;20081;-76
2021/12/01 08:33:47;;;;;;;13.85;3.95;;;8.20;99.90;;;;;;5099797;28;20388;-74
2021/12/01 08:36:14;;;;;;;4.55;2.58;;;8.20;99.90;;;;;;5100429;28;20114;-78
2021/12/01 08:39:03;;;;;;;11.57;3.65;;;8.20;99.90;;;;;;5123593;28;20020;-80
2021/12/01 08:41:29;;;;;;;11.98;4.45;;;8.20;99.90;;;;;;5097457;28;20032;-82
2021/12/01 08:44:05;;;;;;;7.30;2.97;;;8.20;99.90;;;;;;5107388;28;20081;-80
2021/12/01 08:46:33;;;;;;;7.47;3.05;;;8.20;99.90;;;;;;5108362;28;20055;-76
2021/12/01 08:49:02;;;;;;;9.60;3.97;;;8.20;99.90;;;;;;5107803;27;20032;-74
2021/12/01 08:51:44;;;;;;;6.65;2.65;;;8.20;99.90;;;;;;5117069;28;20028;-81
2021/12/01 08:54:13;;;;;;;10.05;3.08;;;8.20;99.90;;;;;;5115003;28;20035;-77
2021/12/01 08:56:57;;;;;;;8.10;2.83;;;8.30;99.90;;;;;;5096762;28;20031;-78
2021/12/01 08:59:26;;;;;;;8.38;3.50;;;8.30;99.90;;;;;;5104846;28;20031;-77
2021/12/01 09:01:52;;;;;;;5.50;2.85;;;8.30;99.90;;;;;;5112020;28;20143;-78
2021/12/01 09:04:21;;;;;;;6.53;2.75;;;8.30;99.90;;;;;;5116901;28;20038;-78
2021/12/01 09:06:51;;;;;;;8.95;3.03;;;8.30;99.90;;;;;;5096566;28;20024;-82
2021/12/01 09:09:20;;;;;;;4.45;2.22;;;8.30;99.90;;;;;;5100589;28;20079;-78
2021/12/01 09:11:50;;;;;;;5.10;2.45;;;8.30;99.90;;;;;;5091097;28;20048;-76
2021/12/01 09:14:16;;;;;;;7.43;2.55;;;8.40;99.90;;;;;;5112237;27;20031;-79
2021/12/01 09:16:43;;;;;;;5.03;1.95;;;8.40;99.90;;;;;;5092187;28;20052;-77
2021/12/01 09:19:09;;;;;;;5.63;2.38;;;8.40;99.90;;;;;;5103495;28;20059;-78
2021/12/01 09:21:35;;;;;;;6.43;2.15;;;8.40;99.90;;;;;;5105840;28;20028;-80
2021/12/01 09:24:05;;;;;;;6.82;2.88;;;8.40;99.90;;;;;;5089518;28;20028;-77
2021/12/01 09:26:44;;;;;;;5.38;2.30;;;8.50;99.90;;;;;;5091221;28;20070;-78
2021/12/01 09:29:23;;;;;;;3.33;1.88;;;8.50;99.90;;;;;;5108001;28;20034;-80
2021/12/01 09:31:49;;;;;;;9.40;1.95;;;8.40;99.90;;;;;;5109359;28;20067;-77
2021/12/01 09:34:15;;;;;;;7.30;1.90;;;8.40;99.90;;;;;;5101547;28;20028;-76
2021/12/01 09:36:40;;;;;;;2.63;1.83;;;8.40;99.90;;;;;;5095685;28;20032;-80
2021/12/01 09:39:09;;;;;;;14.07;2.20;;;8.40;99.90;;;;;;5100621;28;20410;-76
2021/12/01 09:41:36;;;;;;;5.30;2.40;;;8.40;99.90;;;;;;5088958;28;20036;-77
2021/12/01 09:44:06;;;;;;;3.58;1.77;;;8.50;99.90;;;;;;5118643;28;20057;-82
2021/12/01 09:46:32;;;;;;;6.55;2.78;;;8.50;99.90;;;;;;5088441;28;20062;-78
2021/12/01 09:49:00;;;;;;;3.53;2.15;;;8.50;99.90;;;;;;5112441;28;20028;-80
2021/12/01 09:51:29;;;;;;;9.48;2.47;;;8.50;99.90;;;;;;5090619;28;20042;-74
2021/12/01 09:54:00;;;;;;;6.10;2.47;;;8.40;99.90;;;;;;5101797;28;20040;-83
2021/12/01 09:56:28;;;;;;;6.05;1.83;;;8.40;99.90;;;;;;5092797;28;20036;-79
2021/12/01 09:58:55;;;;;;;8.98;4.45;;;8.40;99.90;;;;;;5091476;28;20024;-78
2021/12/01 10:01:22;;;;;;;5.82;2.08;;;8.40;99.90;;;;;;5109560;28;20036;-77
2021/12/01 10:03:48;;;;;;;4.30;1.80;;;8.40;99.90;;;;;;5103141;28;20043;-77
2021/12/01 10:06:25;;;;;;;5.30;2.13;;;8.50;99.90;;;;;;5098203;28;20016;-79
2021/12/01 10:09:07;;;;;;;5.05;2.17;;;8.50;99.90;;;;;;5096711;28;20028;-79
2021/12/01 10:11:41;;;;;;;4.35;1.73;;;8.50;99.90;;;;;;5111097;28;20101;-78
2021/12/01 10:14:21;;;;;;;4.35;2.08;;;8.50;99.90;;;;;;5095235;28;20047;-76
2021/12/01 10:17:06;;;;;;;3.45;1.48;;;8.50;99.90;;;;;;5102929;28;20061;-81
2021/12/01 10:19:34;;;;;;;3.90;1.40;;;8.60;99.90;;;;;;5118033;28;20110;-78
2021/12/01 10:22:09;;;;;;;4.85;1.63;;;8.60;99.90;;;;;;5097226;28;20031;-76
2021/12/01 10:24:36;;;;;;;4.63;2.20;;;8.60;99.90;;;;;;5106082;28;20057;-76
2021/12/01 10:27:08;;;;;;;3.78;1.92;;;8.60;99.90;;;;;;5114753;28;20047;-74
2021/12/01 10:29:52;;;;;;;4.47;1.65;;;8.70;99.90;;;;;;5092099;28;20032;-77
2021/12/01 10:32:19;;;;;;;2.75;1.48;;;8.70;99.90;;;;;;5112608;28;20048;-80
2021/12/01 10:34:52;;;;;;;3.83;1.35;;;8.70;99.90;;;;;;5095936;28;20127;-78
2021/12/01 10:37:28;;;;;;;3.47;1.67;;;8.70;99.90;;;;;;5103964;28;20082;-78
2021/12/01 10:40:17;;;;;;;2.03;0.80;;;8.70;99.90;;;;;;5093591;28;20040;-76
2021/12/01 10:43:21;;;;;;;3.42;1.42;;;8.80;99.90;;;;;;5113228;28;20028;-75
2021/12/01 10:45:48;;;;;;;3.60;1.38;;;8.80;99.90;;;;;;5117332;28;20036;-76
2021/12/01 10:48:27;;;;;;;3.10;1.27;;;8.80;99.90;;;;;;5112245;28;20066;-76
2021/12/01 10:50:53;;;;;;;3.13;1.08;;;8.80;99.90;;;;;;5105978;28;20020;-79
2021/12/01 10:53:22;;;;;;;2.92;1.02;;;8.70;99.90;;;;;;5105375;28;20160;-77
2021/12/01 10:55:59;;;;;;;2.97;1.10;;;8.80;99.90;;;;;;5119665;28;20024;-76
2021/12/01 10:58:35;;;;;;;2.08;0.70;;;8.80;99.90;;;;;;5107338;28;20051;-80
2021/12/01 11:01:02;;;;;;;2.47;1.25;;;8.80;99.90;;;;;;5124390;28;20027;-77
2021/12/01 11:03:31;;;;;;;2.28;1.10;;;8.80;99.90;;;;;;5124181;28;20485;-75
2021/12/01 11:06:20;;;;;;;1.10;0.93;;;8.80;99.90;;;;;;5105436;28;20411;-79
2021/12/01 11:08:48;;;;;;;1.33;0.88;;;8.80;99.90;;;;;;5124733;28;20028;-77
2021/12/01 11:11:16;;;;;;;1.35;0.73;;;8.80;99.90;;;;;;5124716;28;20027;-78
2021/12/01 11:13:47;;;;;;;2.13;1.27;;;8.80;99.90;;;;;;5100745;28;20036;-78
2021/12/01 11:16:15;;;;;;;1.13;0.52;;;8.80;99.90;;;;;;5099914;28;20024;-80
2021/12/01 11:18:43;;;;;;;1.00;0.32;;;8.90;99.90;;;;;;5098900;28;20031;-79
2021/12/01 11:21:12;;;;;;;1.10;0.50;;;9.00;99.90;;;;;;5099056;28;20387;-77
2021/12/01 11:23:44;;;;;;;1.15;0.60;;;9.10;99.90;;;;;;5105536;28;20142;-77
2021/12/01 11:26:15;;;;;;;1.23;0.47;;;9.20;99.90;;;;;;5106440;28;20059;-80
2021/12/01 11:28:43;;;;;;;0.77;0.57;;;9.30;99.90;;;;;;5105894;28;20467;-79
2021/12/01 11:31:42;;;;;;;0.85;0.68;;;9.30;99.90;;;;;;5124600;28;20074;-75
2021/12/01 11:34:12;;;;;;;1.05;0.30;;;9.30;99.90;;;;;;5105618;28;20031;-80
2021/12/01 11:36:45;;;;;;;1.10;0.40;;;9.30;99.90;;;;;;5105589;28;20047;-72
2021/12/01 11:39:22;;;;;;;0.47;0.35;;;9.30;99.90;;;;;;5105654;28;20028;-80
2021/12/01 11:41:53;;;;;;;2.38;0.50;;;9.30;99.90;;;;;;5099263;28;20596;-79
2021/12/01 11:44:30;;;;;;;1.85;0.45;;;9.30;99.90;;;;;;5104051;28;20027;-79
2021/12/01 11:47:01;;;;;;;0.75;0.47;;;9.30;99.90;;;;;;5119832;28;20158;-78
2021/12/01 11:49:32;;;;;;;1.33;0.50;;;9.60;99.90;;;;;;5107598;28;20091;-79
2021/12/01 11:52:15;;;;;;;2.63;0.43;;;10.00;99.90;;;;;;5124625;28;20039;-77
2021/12/01 11:54:45;;;;;;;0.57;0.52;;;10.00;99.90;;;;;;5105865;28;20045;-78
2021/12/01 11:57:11;;;;;;;0.52;0.38;;;10.00;99.90;;;;;;5106923;28;20020;-76
2021/12/01 11:59:47;;;;;;;0.25;0.25;;;9.80;99.90;;;;;;5093954;28;20028;-79
2021/12/01 12:02:15;;;;;;;3.63;0.82;;;9.70;99.90;;;;;;5103033;28;20544;-75
2021/12/01 12:04:44;;;;;;;0.85;0.63;;;9.80;99.90;;;;;;5086147;28;20028;-78
2021/12/01 12:07:18;;;;;;;0.20;0.15;;;9.90;99.90;;;;;;5093193;28;20109;-78
2021/12/01 12:10:07;;;;;;;0.75;0.45;;;9.90;99.90;;;;;;5106248;28;20027;-78
2021/12/01 12:13:07;;;;;;;1.20;0.63;;;9.80;99.90;;;;;;5120495;28;20046;-75
2021/12/01 12:15:55;;;;;;;2.95;0.73;;;9.80;99.90;;;;;;5082675;28;20037;-79
2021/12/01 12:18:34;;;;;;;3.53;1.15;;;9.60;99.90;;;;;;5130535;27;20091;-76
2021/12/01 12:21:11;;;;;;;3.85;0.15;;;9.60;99.90;;;;;;5113741;28;20036;-77
2021/12/01 12:23:37;;;;;;;0.47;0.30;;;9.50;99.90;;;;;;5125914;28;20035;-77
2021/12/01 12:26:04;;;;;;;3.55;0.82;;;9.60;99.90;;;;;;5104746;28;20114;-78
2021/12/01 12:28:36;;;;;;;0.88;0.30;;;9.40;99.90;;;;;;5124049;28;20019;-78
2021/12/01 12:31:22;;;;;;;2.20;0.40;;;9.40;99.90;;;;;;5107253;28;20056;-79
2021/12/01 12:34:01;;;;;;;1.10;0.43;;;9.40;99.90;;;;;;5107670;28;20052;-75
2021/12/01 12:36:49;;;;;;;3.72;0.47;;;9.50;99.90;;;;;;5109371;28;20372;-77
2021/12/01 12:39:21;;;;;;;0.13;0.13;;;9.50;99.90;;;;;;5109186;28;20032;-78
2021/12/01 12:42:02;;;;;;;0.50;0.30;;;9.50;99.90;;;;;;5109364;28;20032;-76
2021/12/01 12:44:44;;;;;;;5.18;1.00;;;9.50;99.90;;;;;;5127159;28;20024;-76
2021/12/01 12:47:12;;;;;;;0.63;0.25;;;9.40;99.90;;;;;;5120543;28;20036;-75
2021/12/01 12:50:02;;;;;;;0.28;0.28;;;9.40;99.90;;;;;;5107253;28;20039;-76
2021/12/01 12:52:32;;;;;;;7.93;0.50;;;9.40;99.90;;;;;;5089390;28;20036;-78
2021/12/01 12:55:06;;;;;;;1.40;0.73;;;9.40;99.90;;;;;;5109016;28;20029;-75
2021/12/01 12:57:49;;;;;;;2.90;0.52;;;9.40;99.90;;;;;;5088823;28;20040;-74
2021/12/01 13:00:29;;;;;;;2.30;0.82;;;9.40;99.90;;;;;;5110548;28;20084;-78
2021/12/01 13:02:58;;;;;;;0.68;0.50;;;9.40;99.90;;;;;;5108259;28;20034;-79
2021/12/01 13:05:51;;;;;;;1.00;0.45;;;9.30;99.90;;;;;;5109019;28;20057;-74
2021/12/01 13:08:44;;;;;;;1.05;0.60;;;9.30;99.90;;;;;;5101927;28;20054;-74
2021/12/01 13:11:22;;;;;;;0.63;0.47;;;9.30;99.90;;;;;;5097376;28;20066;-79
2021/12/01 13:13:54;;;;;;;1.95;0.25;;;9.40;99.90;;;;;;5108563;28;20061;-74
2021/12/01 13:16:20;;;;;;;1.90;1.02;;;9.20;99.90;;;;;;5126910;28;20028;-75